| time (UTC) | temp F | wind direction | speed MPH | gust MPH | rain 1hr in | rain 24hr in | rain mn in | humidity % | barometer mb |
| 20260505130110 | 62 | 46 | 0.0 | 5.0 | 0.05 | 0.07 | 0.07 | 91 | 1006.9 |
| 20260505124600 | 63 | 0 | 1.0 | 4.0 | 0.04 | 0.06 | 0.06 | 91 | 1006.9 |
| 20260505124048 | 63 | 0 | 0.0 | 4.0 | 0.03 | 0.05 | 0.05 | 91 | 1006.7 |
| 20260505123546 | 63 | 0 | 1.0 | 4.0 | 0.03 | 0.05 | 0.05 | 91 | 1006.8 |
| 20260505123048 | 63 | 0 | 0.0 | 3.0 | 0.02 | 0.04 | 0.04 | 90 | 1006.7 |
| 20260505122548 | 63 | 0 | 0.0 | 4.0 | 0.02 | 0.04 | 0.04 | 90 | 1006.6 |
| 20260505122051 | 63 | 0 | 0.0 | 5.0 | 0.02 | 0.04 | 0.04 | 90 | 1006.4 |
| 20260505121552 | 63 | 70 | 1.0 | 5.0 | 0.01 | 0.03 | 0.03 | 90 | 1006.5 |
| 20260505121053 | 63 | 0 | 0.0 | 5.0 | 0.01 | 0.03 | 0.03 | 90 | 1006.5 |
| 20260505120549 | 63 | 0 | 0.0 | 3.0 | 0.00 | 0.02 | 0.02 | 89 | 1006.5 |
| 20260505120108 | 63 | 0 | 0.0 | 3.0 | 0.00 | 0.02 | 0.02 | 89 | 1006.2 |
| 20260505115549 | 63 | 0 | 0.0 | 4.0 | 0.00 | 0.02 | 0.02 | 89 | 1006.2 |
| 20260505115050 | 63 | 0 | 0.0 | 4.0 | 0.00 | 0.02 | 0.02 | 89 | 1006.0 |
| 20260505114552 | 63 | 0 | 0.0 | 3.0 | 0.00 | 0.02 | 0.02 | 88 | 1005.9 |
| 20260505114051 | 63 | 0 | 0.0 | 3.0 | 0.00 | 0.02 | 0.02 | 88 | 1005.9 |
| 20260505113550 | 63 | 0 | 0.0 | 3.0 | 0.00 | 0.02 | 0.02 | 88 | 1005.8 |
| 20260505113054 | 63 | 0 | 0.0 | 3.0 | 0.00 | 0.02 | 0.02 | 88 | 1005.7 |
| 20260505112554 | 63 | 0 | 0.0 | 3.0 | 0.00 | 0.02 | 0.02 | 88 | 1005.7 |
| 20260505112050 | 64 | 0 | 0.0 | 2.0 | 0.00 | 0.02 | 0.02 | 87 | 1005.6 |
| 20260505111550 | 64 | 68 | 0.0 | 3.0 | 0.00 | 0.02 | 0.02 | 87 | 1005.6 |
| 20260505111050 | 64 | 0 | 0.0 | 6.0 | 0.00 | 0.02 | 0.02 | 87 | 1005.5 |
| 20260505110548 | 64 | 0 | 1.0 | 6.0 | 0.00 | 0.02 | 0.02 | 87 | 1005.4 |
| 20260505110106 | 64 | 0 | 0.0 | 7.0 | 0.00 | 0.02 | 0.02 | 87 | 1005.2 |
| 20260505102048 | 64 | 359 | 0.0 | 3.0 | 0.00 | 0.02 | 0.02 | 85 | 1005.1 |
| 20260505101552 | 64 | 54 | 0.0 | 4.0 | 0.00 | 0.02 | 0.02 | 85 | 1005.2 |
| 20260505101052 | 64 | 0 | 0.0 | 4.0 | 0.00 | 0.02 | 0.02 | 85 | 1005.4 |
| 20260505100547 | 63 | 0 | 0.0 | 4.0 | 0.00 | 0.02 | 0.02 | 85 | 1005.4 |
| 20260505100051 | 63 | 0 | 0.0 | 5.0 | 0.00 | 0.02 | 0.02 | 86 | 1005.4 |
| 20260505095550 | 63 | 0 | 0.0 | 5.0 | 0.00 | 0.02 | 0.02 | 85 | 1005.6 |
| 20260505095047 | 63 | 0 | 1.0 | 7.0 | 0.00 | 0.02 | 0.02 | 86 | 1005.8 |
| 20260505094550 | 63 | 335 | 2.0 | 11.0 | 0.00 | 0.02 | 0.02 | 86 | 1005.8 |
| 20260505094048 | 63 | 286 | 2.0 | 11.0 | 0.00 | 0.02 | 0.02 | 86 | 1005.8 |
| 20260505093548 | 63 | 277 | 1.0 | 11.0 | 0.00 | 0.02 | 0.02 | 87 | 1005.8 |
| 20260505093053 | 63 | 0 | 0.0 | 3.0 | 0.00 | 0.02 | 0.02 | 87 | 1004.8 |
| 20260505092550 | 63 | 0 | 0.0 | 3.0 | 0.00 | 0.02 | 0.02 | 86 | 1004.1 |
| 20260505092047 | 63 | 0 | 0.0 | 2.0 | 0.01 | 0.02 | 0.02 | 86 | 1003.9 |
| 20260505091554 | 63 | 0 | 0.0 | 2.0 | 0.01 | 0.02 | 0.02 | 86 | 1004.1 |
| 20260505091050 | 63 | 0 | 0.0 | 3.0 | 0.02 | 0.02 | 0.02 | 86 | 1003.9 |
| 20260505090547 | 62 | 0 | 0.0 | 3.0 | 0.02 | 0.02 | 0.02 | 85 | 1003.6 |
| 20260505090049 | 62 | 88 | 0.0 | 3.0 | 0.02 | 0.02 | 0.02 | 86 | 1003.6 |
| 20260505085548 | 62 | 0 | 0.0 | 4.0 | 0.02 | 0.02 | 0.02 | 86 | 1003.6 |
| 20260505085049 | 62 | 0 | 0.0 | 4.0 | 0.02 | 0.02 | 0.02 | 86 | 1003.6 |
| 20260505084548 | 62 | 155 | 0.0 | 3.0 | 0.02 | 0.02 | 0.02 | 86 | 1003.7 |
| 20260505084048 | 63 | 128 | 0.0 | 2.0 | 0.02 | 0.02 | 0.02 | 86 | 1004.0 |
| 20260505083548 | 63 | 0 | 0.0 | 4.0 | 0.02 | 0.02 | 0.02 | 86 | 1004.5 |
| 20260505083049 | 63 | 0 | 0.0 | 4.0 | 0.02 | 0.02 | 0.02 | 86 | 1004.4 |
| 20260505082548 | 63 | 0 | 0.0 | 2.0 | 0.02 | 0.02 | 0.02 | 86 | 1004.4 |
| 20260505082048 | 63 | 0 | 0.0 | 3.0 | 0.01 | 0.01 | 0.01 | 86 | 1004.4 |
| 20260505081554 | 63 | 0 | 0.0 | 4.0 | 0.01 | 0.01 | 0.01 | 85 | 1004.8 |
| 20260505081049 | 62 | 0 | 0.0 | 6.0 | 0.00 | 0.00 | 0.00 | 84 | 1004.6 |
| 20260505080554 | 62 | 85 | 0.0 | 6.0 | 0.00 | 0.00 | 0.00 | 85 | 1004.9 |
| 20260505080050 | 62 | 360 | 1.0 | 5.0 | 0.00 | 0.00 | 0.00 | 86 | 1004.9 |
| 20260505075554 | 63 | 0 | 0.0 | 2.0 | 0.00 | 0.00 | 0.00 | 86 | 1005.5 |
| 20260505075048 | 63 | 336 | 0.0 | 1.0 | 0.00 | 0.00 | 0.00 | 86 | 1005.5 |
| 20260505074552 | 63 | 0 | 0.0 | 2.0 | 0.00 | 0.00 | 0.00 | 86 | 1005.2 |
| 20260505074050 | 63 | 360 | 0.0 | 4.0 | 0.00 | 0.00 | 0.00 | 85 | 1005.5 |
| 20260505073550 | 63 | 296 | 0.0 | 4.0 | 0.00 | 0.00 | 0.00 | 85 | 1005.2 |
| 20260505073052 | 62 | 77 | 0.0 | 3.0 | 0.00 | 0.00 | 0.00 | 85 | 1005.3 |
| 20260505072551 | 62 | 316 | 0.0 | 1.0 | 0.00 | 0.00 | 0.00 | 84 | 1005.8 |
| 20260505072053 | 62 | 0 | 0.0 | 2.0 | 0.00 | 0.00 | 0.00 | 84 | 1005.9 |
| 20260505071554 | 62 | 0 | 0.0 | 2.0 | 0.00 | 0.00 | 0.00 | 84 | 1005.7 |
| 20260505071050 | 62 | 0 | 0.0 | 2.0 | 0.00 | 0.00 | 0.00 | 85 | 1005.3 |
| 20260505070554 | 62 | 0 | 0.0 | 0.0 | 0.00 | 0.00 | 0.00 | 85 | 1005.7 |
| 20260505070056 | 62 | 0 | 0.0 | 2.0 | 0.00 | 0.00 | 0.00 | 85 | 1006.0 |
| 20260505065548 | 62 | 0 | 0.0 | 2.0 | 0.00 | 0.00 | 0.00 | 85 | 1005.9 |
| 20260505065051 | 62 | 0 | 0.0 | 1.0 | 0.00 | 0.00 | 0.00 | 85 | 1005.9 |
| 20260505064556 | 61 | 0 | 0.0 | 1.0 | 0.00 | 0.00 | 0.00 | 85 | 1005.9 |
| 20260505064051 | 61 | 0 | 0.0 | 1.0 | 0.00 | 0.00 | 0.00 | 86 | 1006.1 |
| 20260505063548 | 61 | 0 | 0.0 | 0.0 | 0.00 | 0.00 | 0.00 | 86 | 1006.1 |
| 20260505063052 | 61 | 0 | 0.0 | 0.0 | 0.00 | 0.00 | 0.00 | 86 | 1006.2 |
| 20260505062549 | 61 | 0 | 0.0 | 0.0 | 0.00 | 0.00 | 0.00 | 86 | 1006.3 |
| 20260505062051 | 61 | 0 | 0.0 | 0.0 | 0.00 | 0.00 | 0.00 | 86 | 1006.7 |
| 20260505061552 | 61 | 0 | 0.0 | 0.0 | 0.00 | 0.00 | 0.00 | 86 | 1006.8 |
| 20260505061047 | 61 | 0 | 0.0 | 0.0 | 0.00 | 0.00 | 0.00 | 86 | 1007.0 |
| 20260505060550 | 61 | 0 | 0.0 | 0.0 | 0.00 | 0.00 | 0.00 | 87 | 1007.1 |
| 20260505060053 | 61 | 0 | 0.0 | 0.0 | 0.00 | 0.00 | 0.00 | 86 | 1007.2 |
| 20260505055548 | 61 | 0 | 0.0 | 0.0 | 0.00 | 0.00 | 0.00 | 86 | 1007.3 |
| 20260505055047 | 60 | 0 | 0.0 | 0.0 | 0.00 | 0.00 | 0.00 | 86 | 1007.2 |
| 20260505054556 | 60 | 0 | 0.0 | 0.0 | 0.00 | 0.00 | 0.00 | 86 | 1007.2 |
| 20260505054048 | 60 | 0 | 0.0 | 0.0 | 0.00 | 0.00 | 0.00 | 87 | 1007.1 |
| 20260505053548 | 60 | 0 | 0.0 | 0.0 | 0.00 | 0.00 | 0.00 | 87 | 1007.1 |
| 20260505053101 | 60 | 0 | 0.0 | 1.0 | 0.00 | 0.00 | 0.00 | 87 | 1007.1 |
| 20260505052548 | 60 | 0 | 0.0 | 1.0 | 0.00 | 0.00 | 0.00 | 87 | 1007.3 |
| 20260505052051 | 60 | 0 | 0.0 | 0.0 | 0.00 | 0.00 | 0.00 | 87 | 1007.1 |
| 20260505051554 | 60 | 0 | 0.0 | 0.0 | 0.00 | 0.00 | 0.00 | 87 | 1007.0 |
| 20260505051051 | 60 | 0 | 0.0 | 0.0 | 0.00 | 0.00 | 0.00 | 87 | 1007.1 |
| 20260505050547 | 60 | 0 | 0.0 | 0.0 | 0.00 | 0.00 | 0.00 | 86 | 1007.2 |
| 20260505041554 | 61 | 0 | 0.0 | 0.0 | 0.00 | 0.00 | 0.00 | 82 | 1007.5 |
| 20260505041048 | 62 | 0 | 0.0 | 0.0 | 0.00 | 0.00 | 0.00 | 81 | 1007.6 |
| 20260505040547 | 62 | 0 | 0.0 | 0.0 | 0.00 | 0.00 | 0.00 | 81 | 1007.6 |
| 20260505040054 | 62 | 0 | 0.0 | 0.0 | 0.00 | 0.00 | 0.00 | 80 | 1007.6 |
| 20260505035547 | 62 | 0 | 0.0 | 0.0 | 0.00 | 0.00 | 0.00 | 80 | 1007.7 |
| 20260505035047 | 62 | 0 | 0.0 | 0.0 | 0.00 | 0.00 | 0.00 | 80 | 1007.6 |
| 20260505034550 | 63 | 0 | 0.0 | 0.0 | 0.00 | 0.00 | 0.00 | 79 | 1007.7 |
| 20260505034047 | 63 | 0 | 0.0 | 0.0 | 0.00 | 0.00 | 0.00 | 79 | 1007.7 |
| 20260505033547 | 63 | 0 | 0.0 | 0.0 | 0.00 | 0.00 | 0.00 | 78 | 1007.8 |
| 20260505033051 | 63 | 0 | 0.0 | 0.0 | 0.00 | 0.00 | 0.00 | 77 | 1007.9 |
| 20260505032547 | 64 | 0 | 0.0 | 0.0 | 0.00 | 0.00 | 0.00 | 76 | 1007.9 |
| 20260505032046 | 64 | 0 | 0.0 | 0.0 | 0.00 | 0.00 | 0.00 | 76 | 1007.9 |
| 20260505031552 | 64 | 0 | 0.0 | 0.0 | 0.00 | 0.00 | 0.00 | 76 | 1007.8 |
| 20260505031046 | 64 | 0 | 0.0 | 0.0 | 0.00 | 0.00 | 0.00 | 75 | 1007.9 |
| 20260505030548 | 65 | 0 | 0.0 | 0.0 | 0.00 | 0.00 | 0.00 | 74 | 1007.8 |
| 20260505030050 | 65 | 0 | 0.0 | 0.0 | 0.00 | 0.00 | 0.00 | 74 | 1007.8 |
| 20260505025550 | 65 | 0 | 0.0 | 0.0 | 0.00 | 0.00 | 0.00 | 74 | 1007.9 |
| 20260505025049 | 65 | 0 | 0.0 | 0.0 | 0.00 | 0.00 | 0.00 | 73 | 1007.9 |
| 20260505024552 | 66 | 0 | 0.0 | 0.0 | 0.00 | 0.00 | 0.00 | 73 | 1007.9 |
| 20260505024049 | 66 | 0 | 0.0 | 0.0 | 0.00 | 0.00 | 0.00 | 73 | 1007.8 |
| 20260505023550 | 66 | 0 | 0.0 | 0.0 | 0.00 | 0.00 | 0.00 | 72 | 1007.8 |
| 20260505023057 | 66 | 0 | 0.0 | 0.0 | 0.00 | 0.00 | 0.00 | 73 | 1007.6 |
| 20260505022550 | 67 | 0 | 0.0 | 0.0 | 0.00 | 0.00 | 0.00 | 72 | 1007.5 |
| 20260505022050 | 67 | 0 | 0.0 | 0.0 | 0.00 | 0.00 | 0.00 | 72 | 1007.5 |
| 20260505021549 | 67 | 0 | 0.0 | 0.0 | 0.00 | 0.00 | 0.00 | 71 | 1007.3 |
| 20260505021050 | 68 | 0 | 0.0 | 0.0 | 0.00 | 0.00 | 0.00 | 71 | 1007.3 |
| 20260505020550 | 68 | 0 | 0.0 | 0.0 | 0.00 | 0.00 | 0.00 | 70 | 1007.2 |
| 20260505020055 | 68 | 0 | 0.0 | 0.0 | 0.00 | 0.00 | 0.00 | 70 | 1007.0 |
| 20260505015548 | 69 | 0 | 0.0 | 0.0 | 0.00 | 0.00 | 0.00 | 68 | 1007.1 |
| 20260505015047 | 69 | 0 | 0.0 | 1.0 | 0.00 | 0.00 | 0.00 | 68 | 1007.0 |
| 20260505014550 | 69 | 0 | 0.0 | 1.0 | 0.00 | 0.00 | 0.00 | 67 | 1006.9 |
| 20260505014048 | 70 | 0 | 0.0 | 0.0 | 0.00 | 0.00 | 0.00 | 66 | 1006.8 |
| 20260505013549 | 70 | 0 | 0.0 | 0.0 | 0.00 | 0.00 | 0.00 | 66 | 1006.9 |
| 20260505013051 | 70 | 0 | 0.0 | 0.0 | 0.00 | 0.00 | 0.00 | 65 | 1006.7 |
| 20260505012547 | 71 | 0 | 0.0 | 0.0 | 0.00 | 0.00 | 0.00 | 63 | 1006.7 |
| 20260505012051 | 71 | 0 | 0.0 | 0.0 | 0.00 | 0.00 | 0.00 | 63 | 1006.7 |
| 20260505011554 | 72 | 0 | 0.0 | 0.0 | 0.00 | 0.00 | 0.00 | 62 | 1006.7 |
| 20260505011052 | 72 | 0 | 0.0 | 0.0 | 0.00 | 0.00 | 0.00 | 62 | 1006.5 |
| 20260505010549 | 72 | 0 | 0.0 | 1.0 | 0.00 | 0.00 | 0.00 | 61 | 1006.5 |
| 20260505010100 | 73 | 0 | 0.0 | 1.0 | 0.00 | 0.00 | 0.00 | 61 | 1006.6 |
| 20260505005549 | 73 | 0 | 0.0 | 3.0 | 0.00 | 0.00 | 0.00 | 60 | 1006.5 |
| 20260505005048 | 73 | 0 | 0.0 | 5.0 | 0.00 | 0.00 | 0.00 | 59 | 1006.5 |
| 20260505004552 | 73 | 119 | 0.0 | 5.0 | 0.00 | 0.00 | 0.00 | 59 | 1006.5 |
| 20260505004050 | 73 | 0 | 0.0 | 5.0 | 0.00 | 0.00 | 0.00 | 58 | 1006.6 |
| 20260505003552 | 74 | 0 | 0.0 | 4.0 | 0.00 | 0.00 | 0.00 | 59 | 1006.4 |
| 20260505003057 | 74 | 0 | 0.0 | 4.0 | 0.00 | 0.00 | 0.00 | 58 | 1006.5 |
| 20260505002550 | 74 | 0 | 0.0 | 3.0 | 0.00 | 0.00 | 0.00 | 58 | 1006.3 |
| 20260505002050 | 75 | 0 | 0.0 | 3.0 | 0.00 | 0.00 | 0.00 | 58 | 1006.4 |
| 20260505001553 | 75 | 190 | 0.0 | 3.0 | 0.00 | 0.00 | 0.00 | 58 | 1006.5 |
| 20260505001050 | 75 | 0 | 0.0 | 3.0 | 0.00 | 0.00 | 0.00 | 59 | 1006.5 |
| 20260505000549 | 75 | 0 | 0.0 | 4.0 | 0.00 | 0.00 | 0.00 | 57 | 1006.5 |
| 20260505000105 | 76 | 0 | 0.0 | 4.0 | 0.00 | 0.00 | 0.00 | 56 | 1006.3 |
| 20260504235551 | 76 | 0 | 0.0 | 4.0 | 0.00 | 0.00 | 0.00 | 56 | 1006.2 |
| 20260504235047 | 76 | 0 | 0.0 | 4.0 | 0.00 | 0.00 | 0.00 | 55 | 1006.2 |
| 20260504234552 | 76 | 0 | 0.0 | 3.0 | 0.00 | 0.00 | 0.00 | 55 | 1006.4 |
| 20260504234048 | 77 | 0 | 0.0 | 4.0 | 0.00 | 0.00 | 0.00 | 55 | 1006.5 |
| 20260504233547 | 77 | 0 | 1.0 | 4.0 | 0.00 | 0.00 | 0.00 | 55 | 1006.3 |
| 20260504233054 | 77 | 0 | 0.0 | 2.0 | 0.00 | 0.00 | 0.00 | 55 | 1006.3 |
| 20260504232550 | 77 | 0 | 0.0 | 5.0 | 0.00 | 0.00 | 0.00 | 55 | 1006.4 |
| 20260504232052 | 78 | 0 | 0.0 | 5.0 | 0.00 | 0.00 | 0.00 | 56 | 1006.5 |
| 20260504231552 | 78 | 156 | 1.0 | 7.0 | 0.00 | 0.00 | 0.00 | 52 | 1006.6 |
| 20260504231048 | 78 | 162 | 1.0 | 7.0 | 0.00 | 0.00 | 0.00 | 52 | 1006.5 |
| 20260504230551 | 78 | 188 | 1.0 | 6.0 | 0.00 | 0.00 | 0.00 | 51 | 1006.5 |
| 20260504230055 | 79 | 120 | 1.0 | 5.0 | 0.00 | 0.00 | 0.00 | 50 | 1006.6 |
| 20260504225548 | 79 | 121 | 1.0 | 5.0 | 0.00 | 0.00 | 0.00 | 51 | 1006.5 |
| 20260504225050 | 79 | 171 | 1.0 | 7.0 | 0.00 | 0.00 | 0.00 | 49 | 1006.6 |
| 20260504224554 | 80 | 141 | 1.0 | 8.0 | 0.00 | 0.00 | 0.00 | 49 | 1006.6 |
| 20260504224050 | 80 | 0 | 1.0 | 8.0 | 0.00 | 0.00 | 0.00 | 51 | 1006.6 |
| 20260504223548 | 80 | 157 | 0.0 | 5.0 | 0.00 | 0.00 | 0.00 | 49 | 1006.6 |
| 20260504223048 | 80 | 0 | 1.0 | 8.0 | 0.00 | 0.00 | 0.00 | 49 | 1006.7 |
| 20260504222549 | 81 | 179 | 1.0 | 8.0 | 0.00 | 0.00 | 0.00 | 47 | 1006.7 |
| 20260504222048 | 81 | 0 | 2.0 | 8.0 | 0.00 | 0.00 | 0.00 | 48 | 1006.8 |
| 20260504221551 | 81 | 330 | 1.0 | 5.0 | 0.00 | 0.00 | 0.00 | 48 | 1006.8 |
| 20260504221049 | 81 | 0 | 2.0 | 7.0 | 0.00 | 0.00 | 0.00 | 46 | 1006.9 |
| 20260504220548 | 82 | 146 | 1.0 | 7.0 | 0.00 | 0.00 | 0.00 | 46 | 1006.9 |
| 20260504220112 | 82 | 155 | 2.0 | 8.0 | 0.00 | 0.00 | 0.00 | 45 | 1006.8 |
| 20260504215549 | 82 | 98 | 1.0 | 8.0 | 0.00 | 0.00 | 0.00 | 45 | 1007.0 |
| 20260504215049 | 82 | 228 | 1.0 | 8.0 | 0.00 | 0.00 | 0.00 | 48 | 1007.0 |
| 20260504214555 | 82 | 150 | 2.0 | 10.0 | 0.00 | 0.00 | 0.00 | 45 | 1007.0 |
| 20260504214048 | 83 | 149 | 3.0 | 10.0 | 0.00 | 0.00 | 0.00 | 45 | 1007.2 |
| 20260504213548 | 83 | 174 | 1.0 | 10.0 | 0.00 | 0.00 | 0.00 | 45 | 1007.1 |
| 20260504213054 | 83 | 0 | 1.0 | 10.0 | 0.00 | 0.00 | 0.00 | 45 | 1007.2 |
| 20260504212549 | 83 | 0 | 3.0 | 10.0 | 0.00 | 0.00 | 0.00 | 45 | 1007.3 |
| 20260504212051 | 83 | 0 | 2.0 | 8.0 | 0.00 | 0.00 | 0.00 | 44 | 1007.3 |
| 20260504211555 | 83 | 174 | 3.0 | 8.0 | 0.00 | 0.00 | 0.00 | 43 | 1007.4 |
| 20260504211047 | 83 | 138 | 2.0 | 6.0 | 0.00 | 0.00 | 0.00 | 45 | 1007.2 |
| 20260504210548 | 83 | 203 | 2.0 | 13.0 | 0.00 | 0.00 | 0.00 | 43 | 1007.4 |
| 20260504210052 | 83 | 115 | 2.0 | 13.0 | 0.00 | 0.00 | 0.00 | 45 | 1007.6 |
| 20260504205552 | 83 | 210 | 2.0 | 9.0 | 0.00 | 0.00 | 0.00 | 44 | 1007.7 |
| 20260504205110 | 83 | 139 | 2.0 | 7.0 | 0.00 | 0.00 | 0.00 | 43 | 1007.8 |
| 20260504204552 | 83 | 226 | 1.0 | 7.0 | 0.00 | 0.00 | 0.00 | 46 | 1007.9 |
| 20260504204048 | 83 | 231 | 2.0 | 7.0 | 0.00 | 0.00 | 0.00 | 46 | 1007.9 |
| 20260504203548 | 83 | 162 | 2.0 | 8.0 | 0.00 | 0.00 | 0.00 | 44 | 1008.0 |
| 20260504203055 | 83 | 89 | 2.0 | 10.0 | 0.00 | 0.00 | 0.00 | 45 | 1008.1 |
| 20260504202549 | 83 | 231 | 2.0 | 10.0 | 0.00 | 0.00 | 0.00 | 44 | 1008.1 |
| 20260504202049 | 83 | 197 | 3.0 | 8.0 | 0.00 | 0.00 | 0.00 | 46 | 1008.1 |
| 20260504201553 | 83 | 143 | 3.0 | 8.0 | 0.00 | 0.00 | 0.00 | 44 | 1008.2 |
| 20260504201049 | 83 | 181 | 3.0 | 12.0 | 0.00 | 0.00 | 0.00 | 43 | 1008.3 |
| 20260504200548 | 83 | 186 | 3.0 | 12.0 | 0.00 | 0.00 | 0.00 | 46 | 1008.6 |
| 20260504200057 | 83 | 120 | 2.0 | 10.0 | 0.00 | 0.00 | 0.00 | 44 | 1008.7 |
| 20260504195547 | 83 | 226 | 2.0 | 10.0 | 0.00 | 0.00 | 0.00 | 45 | 1008.8 |
| 20260504195050 | 83 | 248 | 1.0 | 9.0 | 0.00 | 0.00 | 0.00 | 50 | 1008.8 |
| 20260504194552 | 83 | 272 | 1.0 | 10.0 | 0.00 | 0.00 | 0.00 | 49 | 1008.9 |
| 20260504194048 | 82 | 0 | 4.0 | 10.0 | 0.00 | 0.00 | 0.00 | 42 | 1009.2 |
| 20260504193549 | 83 | 156 | 2.0 | 10.0 | 0.00 | 0.00 | 0.00 | 45 | 1009.2 |
| 20260504193051 | 83 | 146 | 2.0 | 14.0 | 0.00 | 0.00 | 0.00 | 45 | 1009.3 |
| 20260504192547 | 83 | 206 | 4.0 | 14.0 | 0.00 | 0.00 | 0.00 | 43 | 1009.4 |
| 20260504192048 | 83 | 151 | 3.0 | 7.0 | 0.00 | 0.00 | 0.00 | 43 | 1009.4 |
| 20260504191558 | 83 | 225 | 1.0 | 7.0 | 0.00 | 0.00 | 0.00 | 49 | 1009.5 |
| 20260504191048 | 83 | 207 | 3.0 | 7.0 | 0.00 | 0.00 | 0.00 | 44 | 1009.5 |
| 20260504190549 | 83 | 87 | 2.0 | 7.0 | 0.00 | 0.00 | 0.00 | 47 | 1009.5 |
| 20260504190108 | 83 | 186 | 2.0 | 12.0 | 0.00 | 0.00 | 0.00 | 43 | 1009.6 |
| 20260504185548 | 82 | 316 | 3.0 | 12.0 | 0.00 | 0.00 | 0.00 | 43 | 1009.7 |
| 20260504185048 | 83 | 220 | 3.0 | 12.0 | 0.00 | 0.00 | 0.00 | 44 | 1009.7 |
| 20260504184614 | 82 | 253 | 1.0 | 9.0 | 0.00 | 0.00 | 0.00 | 46 | 1009.7 |
| 20260504184048 | 82 | 0 | 2.0 | 9.0 | 0.00 | 0.00 | 0.00 | 46 | 1009.9 |
| 20260504183549 | 82 | 212 | 2.0 | 8.0 | 0.00 | 0.00 | 0.00 | 47 | 1010.0 |
| 20260504183054 | 82 | 160 | 2.0 | 8.0 | 0.00 | 0.00 | 0.00 | 47 | 1010.0 |
| 20260504182549 | 81 | 226 | 2.0 | 8.0 | 0.00 | 0.00 | 0.00 | 43 | 1010.0 |
| 20260504182048 | 81 | 167 | 2.0 | 11.0 | 0.00 | 0.00 | 0.00 | 48 | 1010.1 |
| 20260504181555 | 81 | 205 | 4.0 | 13.0 | 0.00 | 0.00 | 0.00 | 46 | 1010.1 |
| 20260504181049 | 81 | 96 | 5.0 | 13.0 | 0.00 | 0.00 | 0.00 | 46 | 1010.2 |
| 20260504180549 | 81 | 89 | 3.0 | 13.0 | 0.00 | 0.00 | 0.00 | 48 | 1010.3 |
| 20260504180053 | 81 | 162 | 3.0 | 13.0 | 0.00 | 0.00 | 0.00 | 44 | 1010.3 |
| 20260504175548 | 81 | 193 | 2.0 | 10.0 | 0.00 | 0.00 | 0.00 | 46 | 1010.3 |
| 20260504175048 | 81 | 109 | 2.0 | 10.0 | 0.00 | 0.00 | 0.00 | 44 | 1010.3 |
| 20260504174606 | 80 | 0 | 2.0 | 11.0 | 0.00 | 0.00 | 0.00 | 45 | 1010.3 |
| 20260504174050 | 80 | 160 | 3.0 | 15.0 | 0.00 | 0.00 | 0.00 | 48 | 1010.3 |
| 20260504173547 | 80 | 155 | 5.0 | 15.0 | 0.00 | 0.00 | 0.00 | 46 | 1010.6 |
| 20260504173053 | 80 | 324 | 3.0 | 15.0 | 0.00 | 0.00 | 0.00 | 45 | 1010.6 |
| 20260504172548 | 80 | 105 | 4.0 | 15.0 | 0.00 | 0.00 | 0.00 | 48 | 1010.6 |
| 20260504172049 | 80 | 212 | 4.0 | 14.0 | 0.00 | 0.00 | 0.00 | 45 | 1010.6 |
| 20260504171553 | 80 | 191 | 4.0 | 14.0 | 0.00 | 0.00 | 0.00 | 44 | 1010.7 |
| 20260504171048 | 80 | 181 | 1.0 | 11.0 | 0.00 | 0.00 | 0.00 | 48 | 1010.8 |
| 20260504170550 | 80 | 172 | 4.0 | 11.0 | 0.00 | 0.00 | 0.00 | 47 | 1010.9 |
| 20260504151048 | 74 | 240 | 2.0 | 6.0 | 0.00 | 0.00 | 0.00 | 54 | 1011.8 |
| 20260504150548 | 73 | 244 | 1.0 | 5.0 | 0.00 | 0.00 | 0.00 | 56 | 1011.8 |
| 20260504141046 | 64 | 0 | 0.0 | 1.0 | 0.00 | 0.00 | 0.00 | 83 | 1012.4 |
| 20260504140548 | 63 | 0 | 0.0 | 1.0 | 0.00 | 0.00 | 0.00 | 87 | 1012.4 |